sensor_id;sensor_type;location;lat;lon;timestamp;pressure;altitude;pressure_sealevel;temperature;humidity
48530;BME280;34927;37.302;-121.982;2023-02-24T00:00:52;100219.0;;;22.42;26.69
48530;BME280;34927;37.302;-121.982;2023-02-24T00:01:58;100226.0;;;22.41;26.66
48530;BME280;34927;37.302;-121.982;2023-02-24T00:03:02;100218.0;;;22.38;26.65
48530;BME280;34927;37.302;-121.982;2023-02-24T00:04:09;100219.0;;;22.37;26.74
48530;BME280;34927;37.302;-121.982;2023-02-24T00:05:12;100222.0;;;22.37;26.73
48530;BME280;34927;37.302;-121.982;2023-02-24T00:06:17;100223.0;;;22.40;26.65
48530;BME280;34927;37.302;-121.982;2023-02-24T00:07:22;100221.0;;;22.37;26.60
48530;BME280;34927;37.302;-121.982;2023-02-24T00:08:26;100220.0;;;22.37;26.63
48530;BME280;34927;37.302;-121.982;2023-02-24T00:09:32;100218.0;;;22.38;26.64
48530;BME280;34927;37.302;-121.982;2023-02-24T00:10:37;100228.0;;;22.38;26.62
48530;BME280;34927;37.302;-121.982;2023-02-24T00:11:43;100221.0;;;22.36;26.63
48530;BME280;34927;37.302;-121.982;2023-02-24T00:12:47;100221.0;;;22.36;26.65
48530;BME280;34927;37.302;-121.982;2023-02-24T00:13:51;100217.0;;;22.36;26.63
48530;BME280;34927;37.302;-121.982;2023-02-24T00:14:56;100217.0;;;22.37;26.55
48530;BME280;34927;37.302;-121.982;2023-02-24T00:16:03;100214.0;;;22.38;26.55
48530;BME280;34927;37.302;-121.982;2023-02-24T00:17:07;100215.0;;;22.40;26.55
48530;BME280;34927;37.302;-121.982;2023-02-24T00:18:11;100210.0;;;22.41;26.49
48530;BME280;34927;37.302;-121.982;2023-02-24T00:19:19;100207.0;;;22.40;26.55
48530;BME280;34927;37.302;-121.982;2023-02-24T00:20:22;100207.0;;;22.40;26.56
48530;BME280;34927;37.302;-121.982;2023-02-24T00:21:27;100205.0;;;22.42;26.52
48530;BME280;34927;37.302;-121.982;2023-02-24T00:22:31;100206.0;;;22.43;26.54
48530;BME280;34927;37.302;-121.982;2023-02-24T00:23:38;100203.0;;;22.46;26.51
48530;BME280;34927;37.302;-121.982;2023-02-24T00:24:41;100203.0;;;22.43;26.49
48530;BME280;34927;37.302;-121.982;2023-02-24T00:25:46;100207.0;;;22.45;26.53
48530;BME280;34927;37.302;-121.982;2023-02-24T00:26:52;100204.0;;;22.41;26.54
48530;BME280;34927;37.302;-121.982;2023-02-24T00:27:56;100206.0;;;22.41;26.55
48530;BME280;34927;37.302;-121.982;2023-02-24T00:29:05;100204.0;;;22.42;26.57
48530;BME280;34927;37.302;-121.982;2023-02-24T00:30:12;100206.0;;;22.44;26.57
48530;BME280;34927;37.302;-121.982;2023-02-24T00:31:19;100203.0;;;22.41;26.52
48530;BME280;34927;37.302;-121.982;2023-02-24T00:32:22;100206.0;;;22.43;26.53
48530;BME280;34927;37.302;-121.982;2023-02-24T00:33:26;100206.0;;;22.38;26.57
48530;BME280;34927;37.302;-121.982;2023-02-24T00:34:33;100208.0;;;22.42;26.52
48530;BME280;34927;37.302;-121.982;2023-02-24T00:35:36;100207.0;;;22.38;26.57
48530;BME280;34927;37.302;-121.982;2023-02-24T00:36:42;100201.0;;;22.32;26.70
48530;BME280;34927;37.302;-121.982;2023-02-24T00:37:48;100201.0;;;22.37;26.61
48530;BME280;34927;37.302;-121.982;2023-02-24T00:38:54;100205.0;;;22.35;26.60
48530;BME280;34927;37.302;-121.982;2023-02-24T00:39:56;100203.0;;;22.37;26.66
48530;BME280;34927;37.302;-121.982;2023-02-24T00:41:07;100203.0;;;22.38;26.61
48530;BME280;34927;37.302;-121.982;2023-02-24T00:42:11;100200.0;;;22.33;26.60
48530;BME280;34927;37.302;-121.982;2023-02-24T00:43:16;100201.0;;;22.32;26.68
48530;BME280;34927;37.302;-121.982;2023-02-24T00:44:22;100201.0;;;22.34;26.63
48530;BME280;34927;37.302;-121.982;2023-02-24T00:45:26;100199.0;;;22.31;26.67
48530;BME280;34927;37.302;-121.982;2023-02-24T00:46:33;100196.0;;;22.25;26.79
48530;BME280;34927;37.302;-121.982;2023-02-24T00:47:37;100198.0;;;22.28;26.73
48530;BME280;34927;37.302;-121.982;2023-02-24T00:48:42;100201.0;;;22.19;26.77
48530;BME280;34927;37.302;-121.982;2023-02-24T00:49:46;100202.0;;;22.26;26.75
48530;BME280;34927;37.302;-121.982;2023-02-24T00:50:51;100197.0;;;22.31;26.63
48530;BME280;34927;37.302;-121.982;2023-02-24T00:51:57;100199.0;;;22.25;26.71
48530;BME280;34927;37.302;-121.982;2023-02-24T00:53:01;100200.0;;;22.40;26.47
48530;BME280;34927;37.302;-121.982;2023-02-24T00:54:07;100197.0;;;22.46;26.40
48530;BME280;34927;37.302;-121.982;2023-02-24T00:55:12;100200.0;;;22.40;26.89
48530;BME280;34927;37.302;-121.982;2023-02-24T00:56:17;100199.0;;;22.33;27.13
48530;BME280;34927;37.302;-121.982;2023-02-24T00:57:22;100199.0;;;22.27;27.19
48530;BME280;34927;37.302;-121.982;2023-02-24T00:58:26;100198.0;;;22.36;27.21
48530;BME280;34927;37.302;-121.982;2023-02-24T00:59:31;100198.0;;;22.23;27.37
48530;BME280;34927;37.302;-121.982;2023-02-24T01:00:37;100193.0;;;22.16;26.92
48530;BME280;34927;37.302;-121.982;2023-02-24T01:01:42;100191.0;;;22.16;27.00
48530;BME280;34927;37.302;-121.982;2023-02-24T01:02:47;100185.0;;;22.10;26.89
48530;BME280;34927;37.302;-121.982;2023-02-24T01:03:52;100183.0;;;21.94;27.13
48530;BME280;34927;37.302;-121.982;2023-02-24T01:04:56;100183.0;;;21.80;27.29
48530;BME280;34927;37.302;-121.982;2023-02-24T01:06:02;100178.0;;;21.75;27.34
48530;BME280;34927;37.302;-121.982;2023-02-24T01:07:07;100183.0;;;21.70;27.35
48530;BME280;34927;37.302;-121.982;2023-02-24T01:08:11;100184.0;;;21.65;27.38
48530;BME280;34927;37.302;-121.982;2023-02-24T01:09:18;100185.0;;;21.74;27.26
48530;BME280;34927;37.302;-121.982;2023-02-24T01:10:22;100183.0;;;21.66;27.34
48530;BME280;34927;37.302;-121.982;2023-02-24T01:11:32;100184.0;;;21.58;27.45
48530;BME280;34927;37.302;-121.982;2023-02-24T01:12:37;100180.0;;;21.64;27.32
48530;BME280;34927;37.302;-121.982;2023-02-24T01:13:41;100183.0;;;21.62;27.39
48530;BME280;34927;37.302;-121.982;2023-02-24T01:14:49;100185.0;;;21.63;27.39
48530;BME280;34927;37.302;-121.982;2023-02-24T01:15:58;100181.0;;;21.56;27.45
48530;BME280;34927;37.302;-121.982;2023-02-24T01:17:03;100184.0;;;21.68;27.23
48530;BME280;34927;37.302;-121.982;2023-02-24T01:18:09;100184.0;;;21.55;27.34
48530;BME280;34927;37.302;-121.982;2023-02-24T01:19:11;100184.0;;;21.59;27.35
48530;BME280;34927;37.302;-121.982;2023-02-24T01:20:17;100181.0;;;21.69;27.19
48530;BME280;34927;37.302;-121.982;2023-02-24T01:21:22;100185.0;;;21.52;27.45
48530;BME280;34927;37.302;-121.982;2023-02-24T01:22:27;100191.0;;;21.50;27.40
48530;BME280;34927;37.302;-121.982;2023-02-24T01:23:32;100197.0;;;21.47;27.48
48530;BME280;34927;37.302;-121.982;2023-02-24T01:24:38;100194.0;;;21.38;27.57
48530;BME280;34927;37.302;-121.982;2023-02-24T01:25:46;100192.0;;;21.31;27.63
48530;BME280;34927;37.302;-121.982;2023-02-24T01:26:52;100195.0;;;21.43;27.52
48530;BME280;34927;37.302;-121.982;2023-02-24T01:27:56;100193.0;;;21.20;27.83
48530;BME280;34927;37.302;-121.982;2023-02-24T01:29:02;100191.0;;;21.35;27.73
48530;BME280;34927;37.302;-121.982;2023-02-24T01:30:09;100192.0;;;21.41;27.57
48530;BME280;34927;37.302;-121.982;2023-02-24T01:31:13;100191.0;;;21.29;27.73
48530;BME280;34927;37.302;-121.982;2023-02-24T01:32:19;100194.0;;;21.28;27.76
48530;BME280;34927;37.302;-121.982;2023-02-24T01:33:21;100192.0;;;21.36;27.70
48530;BME280;34927;37.302;-121.982;2023-02-24T01:34:27;100196.0;;;21.36;27.67
48530;BME280;34927;37.302;-121.982;2023-02-24T01:35:32;100202.0;;;21.30;27.73
48530;BME280;34927;37.302;-121.982;2023-02-24T01:36:38;100208.0;;;21.30;27.75
48530;BME280;34927;37.302;-121.982;2023-02-24T01:37:41;100207.0;;;21.19;27.98
48530;BME280;34927;37.302;-121.982;2023-02-24T01:38:47;100202.0;;;21.19;27.93
48530;BME280;34927;37.302;-121.982;2023-02-24T01:39:53;100202.0;;;21.26;27.90
48530;BME280;34927;37.302;-121.982;2023-02-24T01:40:57;100202.0;;;21.30;27.79
48530;BME280;34927;37.302;-121.982;2023-02-24T01:42:04;100208.0;;;21.59;27.67
48530;BME280;34927;37.302;-121.982;2023-02-24T01:43:10;100207.0;;;21.86;27.41
48530;BME280;34927;37.302;-121.982;2023-02-24T01:45:28;100206.0;;;22.58;26.72
48530;BME280;34927;37.302;-121.982;2023-02-24T01:46:33;100202.0;;;22.98;26.40
48530;BME280;34927;37.302;-121.982;2023-02-24T01:47:36;100198.0;;;23.29;26.07
48530;BME280;34927;37.302;-121.982;2023-02-24T01:48:42;100195.0;;;23.58;25.76
48530;BME280;34927;37.302;-121.982;2023-02-24T01:49:50;100192.0;;;23.83;25.44
48530;BME280;34927;37.302;-121.982;2023-02-24T01:50:57;100191.0;;;24.11;25.19
48530;BME280;34927;37.302;-121.982;2023-02-24T01:52:07;100189.0;;;24.26;24.88
48530;BME280;34927;37.302;-121.982;2023-02-24T01:53:12;100187.0;;;24.47;24.62
48530;BME280;34927;37.302;-121.982;2023-02-24T01:54:18;100186.0;;;24.69;24.58
48530;BME280;34927;37.302;-121.982;2023-02-24T01:55:24;100183.0;;;24.79;24.32
48530;BME280;34927;37.302;-121.982;2023-02-24T01:56:28;100185.0;;;24.96;24.06
48530;BME280;34927;37.302;-121.982;2023-02-24T01:57:33;100187.0;;;25.08;23.77
48530;BME280;34927;37.302;-121.982;2023-02-24T01:58:37;100184.0;;;25.00;23.71
48530;BME280;34927;37.302;-121.982;2023-02-24T01:59:42;100183.0;;;24.77;23.88
48530;BME280;34927;37.302;-121.982;2023-02-24T02:00:47;100182.0;;;24.62;24.16
48530;BME280;34927;37.302;-121.982;2023-02-24T02:01:52;100180.0;;;24.47;24.31
48530;BME280;34927;37.302;-121.982;2023-02-24T02:03:07;100183.0;;;24.03;24.83
48530;BME280;34927;37.302;-121.982;2023-02-24T02:04:19;100181.0;;;23.59;25.40
48530;BME280;34927;37.302;-121.982;2023-02-24T02:05:27;100168.0;;;23.41;25.36
48530;BME280;34927;37.302;-121.982;2023-02-24T02:06:32;100164.0;;;23.65;25.32
48530;BME280;34927;37.302;-121.982;2023-02-24T02:07:38;100163.0;;;23.87;25.11
48530;BME280;34927;37.302;-121.982;2023-02-24T02:08:42;100160.0;;;24.11;24.81
48530;BME280;34927;37.302;-121.982;2023-02-24T02:09:48;100155.0;;;24.28;24.74
48530;BME280;34927;37.302;-121.982;2023-02-24T02:10:52;100154.0;;;24.59;24.58
48530;BME280;34927;37.302;-121.982;2023-02-24T02:11:56;100154.0;;;24.78;24.34
48530;BME280;34927;37.302;-121.982;2023-02-24T02:13:02;100150.0;;;25.01;24.03
48530;BME280;34927;37.302;-121.982;2023-02-24T02:14:07;100147.0;;;25.19;23.85
48530;BME280;34927;37.302;-121.982;2023-02-24T02:15:13;100145.0;;;25.40;23.64
48530;BME280;34927;37.302;-121.982;2023-02-24T02:16:30;100149.0;;;25.52;23.51
48530;BME280;34927;37.302;-121.982;2023-02-24T02:17:42;100144.0;;;25.70;23.38
48530;BME280;34927;37.302;-121.982;2023-02-24T02:18:53;100147.0;;;25.66;23.29
48530;BME280;34927;37.302;-121.982;2023-02-24T02:20:29;100149.0;;;25.50;23.62
48530;BME280;34927;37.302;-121.982;2023-02-24T02:21:59;100135.0;;;25.15;24.09
48530;BME280;34927;37.302;-121.982;2023-02-24T02:24:30;100134.0;;;24.39;24.88
48530;BME280;34927;37.302;-121.982;2023-02-24T02:25:50;100139.0;;;24.16;25.19
48530;BME280;34927;37.302;-121.982;2023-02-24T02:28:36;100146.0;;;24.35;24.97
48530;BME280;34927;37.302;-121.982;2023-02-24T02:34:52;100156.0;;;25.55;23.30
48530;BME280;34927;37.302;-121.982;2023-02-24T02:36:05;100156.0;;;25.56;23.12
48530;BME280;34927;37.302;-121.982;2023-02-24T02:37:16;100153.0;;;25.31;23.32
48530;BME280;34927;37.302;-121.982;2023-02-24T02:38:26;100149.0;;;25.16;23.56
48530;BME280;34927;37.302;-121.982;2023-02-24T02:39:37;100156.0;;;24.82;24.00
48530;BME280;34927;37.302;-121.982;2023-02-24T02:40:54;100157.0;;;24.37;24.52
48530;BME280;34927;37.302;-121.982;2023-02-24T02:42:08;100157.0;;;24.06;24.91
48530;BME280;34927;37.302;-121.982;2023-02-24T02:43:22;100152.0;;;23.90;25.09
48530;BME280;34927;37.302;-121.982;2023-02-24T02:44:36;100153.0;;;23.65;25.48
48530;BME280;34927;37.302;-121.982;2023-02-24T02:45:45;100150.0;;;23.57;25.51
48530;BME280;34927;37.302;-121.982;2023-02-24T02:46:57;100144.0;;;23.45;25.67
48530;BME280;34927;37.302;-121.982;2023-02-24T02:48:05;100145.0;;;23.58;25.40
48530;BME280;34927;37.302;-121.982;2023-02-24T02:49:15;100146.0;;;23.81;25.22
48530;BME280;34927;37.302;-121.982;2023-02-24T02:50:25;100141.0;;;24.07;24.90
48530;BME280;34927;37.302;-121.982;2023-02-24T02:51:34;100136.0;;;24.36;24.56
48530;BME280;34927;37.302;-121.982;2023-02-24T02:52:40;100137.0;;;24.63;24.26
48530;BME280;34927;37.302;-121.982;2023-02-24T02:53:51;100130.0;;;24.88;23.95
48530;BME280;34927;37.302;-121.982;2023-02-24T02:55:00;100127.0;;;25.11;23.60
48530;BME280;34927;37.302;-121.982;2023-02-24T02:56:11;100123.0;;;25.19;23.45
48530;BME280;34927;37.302;-121.982;2023-02-24T02:57:19;100130.0;;;25.03;23.59
48530;BME280;34927;37.302;-121.982;2023-02-24T02:58:30;100131.0;;;24.91;23.77
48530;BME280;34927;37.302;-121.982;2023-02-24T02:59:41;100134.0;;;24.60;24.13
48530;BME280;34927;37.302;-121.982;2023-02-24T03:00:48;100134.0;;;24.20;24.65
48530;BME280;34927;37.302;-121.982;2023-02-24T03:01:58;100133.0;;;23.89;25.08
48530;BME280;34927;37.302;-121.982;2023-02-24T03:03:09;100134.0;;;23.87;25.32
48530;BME280;34927;37.302;-121.982;2023-02-24T03:04:18;100132.0;;;23.70;25.73
48530;BME280;34927;37.302;-121.982;2023-02-24T03:05:30;100134.0;;;23.70;25.56
48530;BME280;34927;37.302;-121.982;2023-02-24T03:06:40;100128.0;;;23.57;25.87
48530;BME280;34927;37.302;-121.982;2023-02-24T03:07:49;100130.0;;;23.65;25.62
48530;BME280;34927;37.302;-121.982;2023-02-24T03:09:00;100124.0;;;23.84;25.63
48530;BME280;34927;37.302;-121.982;2023-02-24T03:10:10;100123.0;;;24.17;25.38
48530;BME280;34927;37.302;-121.982;2023-02-24T03:11:18;100121.0;;;24.43;25.01
48530;BME280;34927;37.302;-121.982;2023-02-24T03:12:22;100122.0;;;24.75;24.73
48530;BME280;34927;37.302;-121.982;2023-02-24T03:13:30;100121.0;;;25.06;24.40
48530;BME280;34927;37.302;-121.982;2023-02-24T03:14:41;100118.0;;;25.31;24.08
48530;BME280;34927;37.302;-121.982;2023-02-24T03:15:47;100118.0;;;25.37;23.93
48530;BME280;34927;37.302;-121.982;2023-02-24T03:16:52;100116.0;;;25.23;24.39
48530;BME280;34927;37.302;-121.982;2023-02-24T03:18:02;100109.0;;;25.01;24.87
48530;BME280;34927;37.302;-121.982;2023-02-24T03:19:09;100112.0;;;24.72;25.06
48530;BME280;34927;37.302;-121.982;2023-02-24T03:20:20;100108.0;;;24.69;24.96
48530;BME280;34927;37.302;-121.982;2023-02-24T03:21:30;100110.0;;;24.55;25.10
48530;BME280;34927;37.302;-121.982;2023-02-24T03:22:41;100115.0;;;24.40;25.26
48530;BME280;34927;37.302;-121.982;2023-02-24T03:23:49;100111.0;;;24.32;25.39
48530;BME280;34927;37.302;-121.982;2023-02-24T03:24:52;100110.0;;;24.26;25.44
48530;BME280;34927;37.302;-121.982;2023-02-24T03:26:01;100099.0;;;24.13;25.67
48530;BME280;34927;37.302;-121.982;2023-02-24T03:27:10;100101.0;;;24.08;25.69
48530;BME280;34927;37.302;-121.982;2023-02-24T03:28:21;100098.0;;;24.03;25.68
48530;BME280;34927;37.302;-121.982;2023-02-24T03:29:30;100095.0;;;24.26;25.54
48530;BME280;34927;37.302;-121.982;2023-02-24T03:30:41;100098.0;;;24.48;25.29
48530;BME280;34927;37.302;-121.982;2023-02-24T03:31:49;100100.0;;;24.81;24.94
48530;BME280;34927;37.302;-121.982;2023-02-24T03:33:01;100097.0;;;25.09;24.56
48530;BME280;34927;37.302;-121.982;2023-02-24T03:34:11;100094.0;;;25.33;24.25
48530;BME280;34927;37.302;-121.982;2023-02-24T03:35:20;100099.0;;;25.55;24.01
48530;BME280;34927;37.302;-121.982;2023-02-24T03:36:27;100102.0;;;25.43;24.16
48530;BME280;34927;37.302;-121.982;2023-02-24T03:37:32;100101.0;;;25.25;24.85
48530;BME280;34927;37.302;-121.982;2023-02-24T03:38:37;100094.0;;;25.12;24.91
48530;BME280;34927;37.302;-121.982;2023-02-24T03:39:42;100091.0;;;25.07;24.92
48530;BME280;34927;37.302;-121.982;2023-02-24T03:40:46;100091.0;;;24.93;25.04
48530;BME280;34927;37.302;-121.982;2023-02-24T03:41:56;100091.0;;;24.71;25.22
48530;BME280;34927;37.302;-121.982;2023-02-24T03:43:05;100098.0;;;24.51;25.56
48530;BME280;34927;37.302;-121.982;2023-02-24T03:44:12;100098.0;;;24.46;25.65
48530;BME280;34927;37.302;-121.982;2023-02-24T03:45:17;100098.0;;;24.39;25.68
48530;BME280;34927;37.302;-121.982;2023-02-24T03:46:22;100097.0;;;24.36;25.88
48530;BME280;34927;37.302;-121.982;2023-02-24T03:47:27;100092.0;;;24.29;25.80
48530;BME280;34927;37.302;-121.982;2023-02-24T03:48:33;100094.0;;;24.21;25.89
48530;BME280;34927;37.302;-121.982;2023-02-24T03:49:42;100095.0;;;24.35;25.81
48530;BME280;34927;37.302;-121.982;2023-02-24T03:50:47;100099.0;;;24.57;25.57
48530;BME280;34927;37.302;-121.982;2023-02-24T03:52:01;100097.0;;;24.82;25.21
48530;BME280;34927;37.302;-121.982;2023-02-24T03:53:25;100102.0;;;25.14;24.82
48530;BME280;34927;37.302;-121.982;2023-02-24T03:54:43;100091.0;;;25.42;24.50
48530;BME280;34927;37.302;-121.982;2023-02-24T03:56:00;100085.0;;;25.62;24.21
48530;BME280;34927;37.302;-121.982;2023-02-24T03:57:15;100086.0;;;25.44;24.49
48530;BME280;34927;37.302;-121.982;2023-02-24T03:58:27;100080.0;;;25.30;24.96
48530;BME280;34927;37.302;-121.982;2023-02-24T03:59:39;100076.0;;;25.08;25.11
48530;BME280;34927;37.302;-121.982;2023-02-24T04:00:52;100069.0;;;25.00;25.21
48530;BME280;34927;37.302;-121.982;2023-02-24T04:01:59;100065.0;;;24.92;25.28
48530;BME280;34927;37.302;-121.982;2023-02-24T04:03:17;100062.0;;;24.73;25.48
48530;BME280;34927;37.302;-121.982;2023-02-24T04:04:27;100056.0;;;24.58;25.78
48530;BME280;34927;37.302;-121.982;2023-02-24T04:05:33;100049.0;;;24.51;25.82
48530;BME280;34927;37.302;-121.982;2023-02-24T04:06:43;100044.0;;;24.37;26.03
48530;BME280;34927;37.302;-121.982;2023-02-24T04:07:52;100039.0;;;24.27;26.02
48530;BME280;34927;37.302;-121.982;2023-02-24T04:10:16;100033.0;;;24.29;26.03
48530;BME280;34927;37.302;-121.982;2023-02-24T04:11:26;100030.0;;;24.50;25.85
48530;BME280;34927;37.302;-121.982;2023-02-24T04:12:37;100034.0;;;24.75;25.55
48530;BME280;34927;37.302;-121.982;2023-02-24T04:13:45;100031.0;;;25.07;25.14
48530;BME280;34927;37.302;-121.982;2023-02-24T04:14:56;100031.0;;;25.31;24.78
48530;BME280;34927;37.302;-121.982;2023-02-24T04:16:08;100033.0;;;25.61;24.42
48530;BME280;34927;37.302;-121.982;2023-02-24T04:17:16;100032.0;;;25.66;24.28
48530;BME280;34927;37.302;-121.982;2023-02-24T04:18:25;100041.0;;;25.47;24.78
48530;BME280;34927;37.302;-121.982;2023-02-24T04:19:34;100041.0;;;25.34;24.98
48530;BME280;34927;37.302;-121.982;2023-02-24T04:20:43;100049.0;;;25.13;25.38
48530;BME280;34927;37.302;-121.982;2023-02-24T04:21:47;100058.0;;;25.02;25.45
48530;BME280;34927;37.302;-121.982;2023-02-24T04:22:55;100061.0;;;24.94;25.34
48530;BME280;34927;37.302;-121.982;2023-02-24T04:24:05;100051.0;;;24.41;25.63
48530;BME280;34927;37.302;-121.982;2023-02-24T04:25:12;100057.0;;;24.24;25.26
48530;BME280;34927;37.302;-121.982;2023-02-24T04:26:17;100057.0;;;24.08;25.32
48530;BME280;34927;37.302;-121.982;2023-02-24T04:27:22;100059.0;;;23.87;25.55
48530;BME280;34927;37.302;-121.982;2023-02-24T04:28:28;100048.0;;;23.78;25.61
48530;BME280;34927;37.302;-121.982;2023-02-24T04:29:35;100054.0;;;23.77;25.63
48530;BME280;34927;37.302;-121.982;2023-02-24T04:30:46;100052.0;;;23.55;25.91
48530;BME280;34927;37.302;-121.982;2023-02-24T04:31:55;100042.0;;;23.76;25.63
48530;BME280;34927;37.302;-121.982;2023-02-24T04:33:02;100040.0;;;23.99;25.42
48530;BME280;34927;37.302;-121.982;2023-02-24T04:34:06;100038.0;;;24.29;25.18
48530;BME280;34927;37.302;-121.982;2023-02-24T04:35:13;100036.0;;;24.56;24.89
48530;BME280;34927;37.302;-121.982;2023-02-24T04:36:17;100033.0;;;24.83;24.58
48530;BME280;34927;37.302;-121.982;2023-02-24T04:37:23;100033.0;;;25.11;24.19
48530;BME280;34927;37.302;-121.982;2023-02-24T04:38:27;100046.0;;;25.28;23.89
48530;BME280;34927;37.302;-121.982;2023-02-24T04:39:32;100041.0;;;25.24;23.81
48530;BME280;34927;37.302;-121.982;2023-02-24T04:40:37;100040.0;;;25.10;24.01
48530;BME280;34927;37.302;-121.982;2023-02-24T04:41:42;100038.0;;;24.93;24.27
48530;BME280;34927;37.302;-121.982;2023-02-24T04:42:47;100040.0;;;24.57;24.64
48530;BME280;34927;37.302;-121.982;2023-02-24T04:43:52;100044.0;;;24.40;24.82
48530;BME280;34927;37.302;-121.982;2023-02-24T04:44:57;100045.0;;;24.20;25.05
48530;BME280;34927;37.302;-121.982;2023-02-24T04:46:02;100049.0;;;24.10;25.04
48530;BME280;34927;37.302;-121.982;2023-02-24T04:47:07;100050.0;;;24.05;25.16
48530;BME280;34927;37.302;-121.982;2023-02-24T04:48:13;100051.0;;;23.95;25.18
48530;BME280;34927;37.302;-121.982;2023-02-24T04:49:17;100049.0;;;23.87;25.20
48530;BME280;34927;37.302;-121.982;2023-02-24T04:50:24;100046.0;;;23.80;25.30
48530;BME280;34927;37.302;-121.982;2023-02-24T04:51:27;100040.0;;;23.75;25.35
48530;BME280;34927;37.302;-121.982;2023-02-24T04:52:31;100042.0;;;23.52;25.64
48530;BME280;34927;37.302;-121.982;2023-02-24T04:53:37;100032.0;;;23.67;25.50
48530;BME280;34927;37.302;-121.982;2023-02-24T04:54:42;100034.0;;;23.94;25.31
48530;BME280;34927;37.302;-121.982;2023-02-24T04:55:47;100027.0;;;24.14;25.03
48530;BME280;34927;37.302;-121.982;2023-02-24T04:56:52;100025.0;;;24.44;24.76
48530;BME280;34927;37.302;-121.982;2023-02-24T04:57:57;100028.0;;;24.70;24.41
48530;BME280;34927;37.302;-121.982;2023-02-24T04:59:01;100023.0;;;24.95;24.07
48530;BME280;34927;37.302;-121.982;2023-02-24T05:00:07;100021.0;;;25.18;23.82
48530;BME280;34927;37.302;-121.982;2023-02-24T05:01:13;100022.0;;;25.16;23.72
48530;BME280;34927;37.302;-121.982;2023-02-24T05:02:17;100013.0;;;25.00;23.92
48530;BME280;34927;37.302;-121.982;2023-02-24T05:03:23;100019.0;;;24.64;24.34
48530;BME280;34927;37.302;-121.982;2023-02-24T05:04:27;100012.0;;;24.45;24.64
48530;BME280;34927;37.302;-121.982;2023-02-24T05:05:32;100021.0;;;24.25;24.87
48530;BME280;34927;37.302;-121.982;2023-02-24T05:06:37;100026.0;;;24.15;24.90
48530;BME280;34927;37.302;-121.982;2023-02-24T05:07:42;100023.0;;;24.00;25.06
48530;BME280;34927;37.302;-121.982;2023-02-24T05:08:47;100015.0;;;23.84;25.31
48530;BME280;34927;37.302;-121.982;2023-02-24T05:09:52;100009.0;;;23.75;25.48
48530;BME280;34927;37.302;-121.982;2023-02-24T05:10:57;100001.0;;;23.69;25.58
48530;BME280;34927;37.302;-121.982;2023-02-24T05:12:01;100001.0;;;23.59;25.87
48530;BME280;34927;37.302;-121.982;2023-02-24T05:13:07;99994.0;;;23.45;25.97
48530;BME280;34927;37.302;-121.982;2023-02-24T05:14:13;99987.0;;;23.57;25.80
48530;BME280;34927;37.302;-121.982;2023-02-24T05:15:16;99994.0;;;23.79;25.63
48530;BME280;34927;37.302;-121.982;2023-02-24T05:16:21;99982.0;;;24.05;25.39
48530;BME280;34927;37.302;-121.982;2023-02-24T05:17:26;99983.0;;;24.35;25.05
48530;BME280;34927;37.302;-121.982;2023-02-24T05:18:31;99981.0;;;24.62;24.72
48530;BME280;34927;37.302;-121.982;2023-02-24T05:19:37;99984.0;;;24.85;24.35
48530;BME280;34927;37.302;-121.982;2023-02-24T05:20:44;99977.0;;;25.12;24.01
48530;BME280;34927;37.302;-121.982;2023-02-24T05:21:46;99970.0;;;25.18;23.81
48530;BME280;34927;37.302;-121.982;2023-02-24T05:22:52;99966.0;;;25.04;23.88
48530;BME280;34927;37.302;-121.982;2023-02-24T05:23:57;99965.0;;;24.94;23.96
48530;BME280;34927;37.302;-121.982;2023-02-24T05:25:02;99966.0;;;24.67;24.38
48530;BME280;34927;37.302;-121.982;2023-02-24T05:26:15;99975.0;;;24.28;25.30
48530;BME280;34927;37.302;-121.982;2023-02-24T05:27:22;99977.0;;;24.14;25.32
48530;BME280;34927;37.302;-121.982;2023-02-24T05:28:27;99970.0;;;24.23;25.20
48530;BME280;34927;37.302;-121.982;2023-02-24T05:29:33;99967.0;;;24.15;25.26
48530;BME280;34927;37.302;-121.982;2023-02-24T05:30:36;99971.0;;;23.96;25.57
48530;BME280;34927;37.302;-121.982;2023-02-24T05:31:42;99974.0;;;23.82;25.59
48530;BME280;34927;37.302;-121.982;2023-02-24T05:32:46;99964.0;;;23.78;25.69
48530;BME280;34927;37.302;-121.982;2023-02-24T05:33:53;99973.0;;;23.65;25.81
48530;BME280;34927;37.302;-121.982;2023-02-24T05:34:57;99975.0;;;23.65;25.69
48530;BME280;34927;37.302;-121.982;2023-02-24T05:36:03;99964.0;;;23.79;25.80
48530;BME280;34927;37.302;-121.982;2023-02-24T05:37:06;99967.0;;;24.00;25.64
48530;BME280;34927;37.302;-121.982;2023-02-24T05:38:12;99968.0;;;24.34;25.35
48530;BME280;34927;37.302;-121.982;2023-02-24T05:39:17;99964.0;;;24.57;25.00
48530;BME280;34927;37.302;-121.982;2023-02-24T05:40:22;99968.0;;;24.85;24.69
48530;BME280;34927;37.302;-121.982;2023-02-24T05:41:27;99958.0;;;25.04;24.39
48530;BME280;34927;37.302;-121.982;2023-02-24T05:42:34;99961.0;;;25.03;24.35
48530;BME280;34927;37.302;-121.982;2023-02-24T05:43:37;99959.0;;;24.86;24.52
48530;BME280;34927;37.302;-121.982;2023-02-24T05:44:42;99959.0;;;24.58;24.92
48530;BME280;34927;37.302;-121.982;2023-02-24T05:45:47;99960.0;;;24.33;25.33
48530;BME280;34927;37.302;-121.982;2023-02-24T05:46:53;99953.0;;;24.11;25.47
48530;BME280;34927;37.302;-121.982;2023-02-24T05:47:56;99955.0;;;24.02;25.49
48530;BME280;34927;37.302;-121.982;2023-02-24T05:49:04;99955.0;;;23.94;25.55
48530;BME280;34927;37.302;-121.982;2023-02-24T05:50:12;99958.0;;;23.97;25.61
48530;BME280;34927;37.302;-121.982;2023-02-24T05:51:16;99950.0;;;23.86;25.61
48530;BME280;34927;37.302;-121.982;2023-02-24T05:52:22;99949.0;;;23.75;25.72